createdAt,value
2018-05-15T00:01:14.737Z,2.73
2018-05-15T00:07:09.769Z,1.09
2018-05-15T00:13:04.760Z,1.91
2018-05-15T00:18:59.777Z,1.09
2018-05-15T00:24:54.781Z,1.69
2018-05-15T00:30:49.777Z,1.08
2018-05-15T00:36:44.796Z,1.56
2018-05-15T00:42:39.774Z,1.15
2018-05-15T00:48:34.790Z,1.12
2018-05-15T00:54:29.782Z,2.03
2018-05-15T01:00:24.777Z,1.03
2018-05-15T01:06:19.777Z,1.08
2018-05-15T01:12:14.781Z,2.13
2018-05-15T01:18:09.766Z,2.16
2018-05-15T01:24:04.809Z,3.05
2018-05-15T01:29:59.812Z,2
2018-05-15T01:35:54.777Z,2.06
2018-05-15T01:41:49.763Z,3.18
2018-05-15T01:47:44.798Z,2.36
2018-05-15T01:53:39.816Z,4.54
2018-05-15T01:59:34.814Z,2.79
2018-05-15T02:05:29.827Z,3.28
2018-05-15T02:11:24.887Z,4.97
2018-05-15T02:17:19.853Z,1.59
2018-05-15T02:23:14.804Z,1.93
2018-05-15T02:29:09.850Z,2.26
2018-05-15T02:35:04.823Z,1.81
2018-05-15T02:40:59.825Z,1.92
2018-05-15T02:46:54.843Z,1.82
2018-05-15T02:52:49.875Z,2.11
2018-05-15T02:58:44.838Z,4.03
2018-05-15T03:04:39.836Z,3.09
2018-05-15T03:10:34.895Z,2.7
2018-05-15T03:16:29.839Z,2.65
2018-05-15T03:22:24.864Z,3.23
2018-05-15T03:28:19.859Z,3.01
2018-05-15T03:34:14.863Z,2.7
2018-05-15T03:40:09.851Z,2.66
2018-05-15T03:46:04.879Z,2.5
2018-05-15T03:51:59.893Z,1.93
2018-05-15T03:57:54.874Z,1.96
2018-05-15T04:03:49.889Z,2.79
2018-05-15T04:09:44.870Z,2.65
2018-05-15T04:15:39.893Z,2.82
2018-05-15T04:21:34.872Z,3.13
2018-05-15T04:27:29.872Z,2.25
2018-05-15T04:33:24.920Z,1.86
2018-05-15T04:39:19.890Z,1.61
2018-05-15T04:45:14.888Z,2.59
2018-05-15T04:51:09.881Z,2.86
2018-05-15T04:57:04.913Z,3.27
2018-05-15T05:02:59.928Z,4.77
2018-05-15T05:08:54.927Z,4.31
2018-05-15T05:14:49.912Z,4.5
2018-05-15T05:20:44.977Z,5.75
2018-05-15T05:26:39.939Z,5.03
2018-05-15T05:32:34.975Z,4.18
2018-05-15T05:38:29.907Z,4.81
2018-05-15T05:44:24.930Z,6.17
2018-05-15T05:50:19.967Z,5.91
2018-05-15T05:56:14.912Z,5.14
2018-05-15T06:02:09.940Z,4.33
2018-05-15T06:08:04.930Z,4.23
2018-05-15T06:13:59.945Z,4.23
2018-05-15T06:19:54.964Z,5.35
2018-05-15T06:25:49.941Z,5.66
2018-05-15T06:31:44.959Z,5.86
2018-05-15T06:37:39.938Z,4.26
2018-05-15T06:43:34.985Z,7.29
2018-05-15T06:49:30.642Z,7.29
2018-05-15T06:55:24.972Z,7.2
2018-05-15T07:01:20.000Z,15.83
2018-05-15T07:07:14.955Z,11.51
2018-05-15T07:13:09.983Z,7.47
2018-05-15T07:19:04.969Z,9.74
2018-05-15T07:25:00.013Z,5.6
2018-05-15T07:30:54.968Z,8.65
2018-05-15T07:36:49.999Z,5.08
2018-05-15T07:42:45.049Z,4.73
2018-05-15T07:48:39.965Z,4.21
2018-05-15T07:54:35.017Z,2.36
2018-05-15T08:00:30.005Z,3.32
2018-05-15T08:06:25.010Z,1.31
2018-05-15T08:12:19.980Z,3.17
2018-05-15T08:18:15.002Z,2.32
2018-05-15T08:24:10.017Z,5.91
2018-05-15T08:30:05.195Z,2.66
2018-05-15T08:36:00.002Z,2.82
2018-05-15T08:41:55.031Z,3.11
2018-05-15T08:47:50.022Z,3.08
2018-05-15T08:53:45.036Z,2.01
2018-05-15T08:59:40.007Z,2.48
2018-05-15T09:05:35.024Z,1.65
2018-05-15T09:11:30.028Z,2.23
2018-05-15T09:17:25.042Z,1.01
2018-05-15T09:23:20.076Z,1.21
2018-05-15T09:29:15.093Z,1.13
2018-05-15T09:35:10.072Z,1.87
2018-05-15T09:41:05.024Z,2.2
2018-05-15T09:47:00.131Z,1.27
2018-05-15T09:52:55.098Z,1.41
2018-05-15T09:58:50.081Z,1.91
2018-05-15T10:04:45.091Z,3.43
2018-05-15T10:10:40.089Z,1.4
2018-05-15T10:16:35.055Z,1.39
2018-05-15T10:22:30.032Z,3.02
2018-05-15T10:28:25.062Z,1.68
2018-05-15T10:34:20.069Z,2.41
2018-05-15T10:40:15.194Z,1.28
2018-05-15T10:46:10.065Z,1.29
2018-05-15T10:52:05.088Z,1.22
2018-05-15T10:58:00.143Z,2.21
2018-05-15T11:03:55.104Z,2.03
2018-05-15T11:09:50.073Z,1.1
2018-05-15T11:15:45.085Z,0.96
2018-05-15T11:21:40.120Z,1.45
2018-05-15T11:27:35.098Z,1.06
2018-05-15T11:33:30.099Z,1.23
2018-05-15T11:39:25.122Z,1.53
2018-05-15T11:45:20.121Z,0.97
2018-05-15T11:51:16.042Z,0.63
2018-05-15T11:57:10.105Z,0.89
2018-05-15T12:03:05.399Z,3.43
2018-05-15T12:09:00.176Z,2.65
2018-05-15T12:14:55.214Z,2.4
2018-05-15T12:20:50.172Z,1.81
2018-05-15T12:26:45.119Z,1.19
2018-05-15T12:32:40.171Z,2.54
2018-05-15T12:38:35.121Z,1.01
2018-05-15T12:44:30.175Z,1.01
2018-05-15T12:50:25.172Z,1.68
2018-05-15T12:56:20.168Z,1.6
2018-05-15T13:02:15.186Z,0.85
2018-05-15T13:08:10.146Z,0.94
2018-05-15T13:14:05.161Z,0.7
2018-05-15T13:20:00.192Z,0.78
2018-05-15T13:25:55.187Z,0.7
2018-05-15T13:31:50.235Z,1.49
2018-05-15T13:37:45.150Z,0.69
2018-05-15T13:43:40.160Z,1.1
2018-05-15T13:49:35.169Z,2.05
2018-05-15T13:55:30.181Z,1.76
2018-05-15T14:01:25.171Z,1.17
2018-05-15T14:07:20.192Z,1.16
2018-05-15T14:13:15.171Z,0.86
2018-05-15T14:19:10.220Z,0.86
2018-05-15T14:25:05.218Z,0.97
2018-05-15T14:31:00.193Z,1.59
2018-05-15T14:36:55.198Z,1.28
2018-05-15T14:42:50.173Z,1.8
2018-05-15T14:48:45.194Z,1.32
2018-05-15T14:54:40.201Z,1.44
2018-05-15T15:00:35.207Z,2.03
2018-05-15T15:06:30.210Z,1.84
2018-05-15T15:12:25.246Z,1.26
2018-05-15T15:18:20.215Z,0.69
2018-05-15T15:24:15.238Z,1.13
2018-05-15T15:30:10.242Z,1.72
2018-05-15T15:36:05.263Z,2.07
2018-05-15T15:42:00.249Z,0.77
2018-05-15T15:47:55.244Z,0.95
2018-05-15T15:53:50.265Z,0.8
2018-05-15T15:59:45.243Z,1.03
2018-05-15T16:05:40.330Z,2.6
2018-05-15T16:11:35.253Z,2.53
2018-05-15T16:17:30.338Z,3.53
2018-05-15T16:23:25.257Z,2.65
2018-05-15T16:29:20.256Z,0.75
2018-05-15T16:35:15.267Z,2.02
2018-05-15T16:41:10.303Z,1.68
2018-05-15T16:47:05.307Z,1.26
2018-05-15T16:53:00.482Z,1.96
2018-05-15T16:58:55.286Z,1.9
2018-05-15T17:04:50.264Z,1.25
2018-05-15T17:10:45.315Z,1.43
2018-05-15T17:16:40.283Z,2.46
2018-05-15T17:22:35.297Z,3.43
2018-05-15T17:28:30.283Z,4.87
2018-05-15T17:34:25.384Z,3.12
2018-05-15T17:40:20.328Z,1.65
2018-05-15T17:46:15.301Z,2.78
2018-05-15T17:52:10.325Z,1.14
2018-05-15T17:58:05.313Z,4.27
2018-05-15T18:04:00.366Z,2.26
2018-05-15T18:09:55.348Z,1.93
2018-05-15T18:15:50.302Z,2.68
2018-05-15T18:21:45.457Z,1.5
2018-05-15T18:27:40.467Z,11.44
2018-05-15T18:33:35.371Z,2.58
2018-05-15T18:39:30.334Z,4.36
2018-05-15T18:45:25.363Z,3.4
2018-05-15T18:51:20.324Z,1.56
2018-05-15T18:57:15.350Z,1.21
2018-05-15T19:03:10.329Z,1.89
2018-05-15T19:09:05.315Z,2.79
2018-05-15T19:15:00.334Z,5.84
2018-05-15T19:20:55.553Z,2.57
2018-05-15T19:26:50.441Z,2.15
2018-05-15T19:32:45.346Z,1.81
2018-05-15T19:38:40.455Z,1.25
2018-05-15T19:44:35.343Z,1.87
2018-05-15T19:50:30.426Z,1.68
2018-05-15T19:56:25.383Z,2.11
2018-05-15T20:02:20.438Z,2.53
2018-05-15T20:08:15.389Z,1.62
2018-05-15T20:14:10.428Z,2.49
2018-05-15T20:20:05.388Z,2.29
2018-05-15T20:26:00.410Z,2.19
2018-05-15T20:31:55.406Z,2.39
2018-05-15T20:37:50.406Z,1.77
2018-05-15T20:43:45.370Z,1.9
2018-05-15T20:49:40.393Z,2.08
2018-05-15T20:55:35.392Z,1.57
2018-05-15T21:01:30.382Z,2.47
2018-05-15T21:07:25.415Z,2.15
2018-05-15T21:13:20.465Z,1.41
2018-05-15T21:19:15.378Z,1.31
2018-05-15T21:25:10.447Z,1.52
2018-05-15T21:31:05.405Z,1.63
2018-05-15T21:37:00.451Z,1.41
2018-05-15T21:42:55.403Z,2.01
2018-05-15T21:48:50.441Z,1.15
2018-05-15T21:54:45.427Z,1.43
2018-05-15T22:00:40.415Z,1.43
2018-05-15T22:06:35.434Z,1.71
2018-05-15T22:12:30.438Z,1.75
2018-05-15T22:18:25.491Z,1.64
2018-05-15T22:24:20.441Z,2.57
2018-05-15T22:30:15.442Z,2.22
2018-05-15T22:36:10.431Z,1.44
2018-05-15T22:42:05.459Z,1.7
2018-05-15T22:48:00.437Z,1.98
2018-05-15T22:53:55.434Z,2.21
2018-05-15T22:59:50.525Z,1.91
2018-05-15T23:05:45.486Z,2.65
2018-05-15T23:11:40.486Z,2.02
2018-05-15T23:17:35.464Z,1.92
2018-05-15T23:23:30.531Z,1.93
2018-05-15T23:29:25.543Z,1.8
2018-05-15T23:35:20.505Z,1.73
2018-05-15T23:41:15.483Z,1.87
2018-05-15T23:47:10.480Z,2.3
2018-05-15T23:53:05.528Z,1.76
2018-05-15T23:59:00.498Z,2.66
